createdAt,value
2017-05-30T00:00:08.311Z,931.71
2017-05-30T00:00:21.412Z,931.67
2017-05-30T00:00:34.881Z,931.7
2017-05-30T00:00:47.818Z,931.67
2017-05-30T00:01:01.224Z,931.67
2017-05-30T00:01:13.652Z,931.69
2017-05-30T00:01:27.029Z,931.69
2017-05-30T00:01:39.973Z,931.7
2017-05-30T00:01:52.842Z,931.71
2017-05-30T00:02:05.690Z,931.72
2017-05-30T00:02:19.139Z,931.71
2017-05-30T00:02:31.972Z,931.73
2017-05-30T00:02:44.890Z,931.71
2017-05-30T00:02:58.338Z,931.74
2017-05-30T00:03:11.794Z,931.73
2017-05-30T00:03:25.238Z,931.73
2017-05-30T00:03:38.118Z,931.76
2017-05-30T00:03:51.018Z,931.72
2017-05-30T00:04:04.481Z,931.73
2017-05-30T00:04:16.866Z,931.75
2017-05-30T00:04:29.253Z,931.76
2017-05-30T00:04:42.647Z,931.75
2017-05-30T00:04:56.088Z,931.77
2017-05-30T00:05:09.024Z,931.77
2017-05-30T00:05:22.454Z,931.76
2017-05-30T00:05:34.721Z,931.79
2017-05-30T00:05:47.610Z,931.77
2017-05-30T00:06:01.043Z,931.77
2017-05-30T00:06:14.579Z,931.77
2017-05-30T00:06:28.116Z,931.8
2017-05-30T00:06:41.040Z,931.76
2017-05-30T00:06:54.457Z,931.78
2017-05-30T00:07:07.362Z,931.78
2017-05-30T00:07:19.768Z,931.79
2017-05-30T00:07:32.691Z,931.77
2017-05-30T00:07:46.079Z,931.79
2017-05-30T00:07:59.536Z,931.8
2017-05-30T00:08:13.612Z,931.78
2017-05-30T00:08:26.117Z,931.78
2017-05-30T00:08:39.031Z,931.8
2017-05-30T00:08:52.472Z,931.8
2017-05-30T00:09:05.457Z,931.82
2017-05-30T00:09:18.957Z,931.8
2017-05-30T00:09:32.459Z,931.83
2017-05-30T00:09:46.354Z,931.8
2017-05-30T00:09:59.872Z,931.79
2017-05-30T00:10:13.281Z,931.81
2017-05-30T00:10:25.697Z,931.82
2017-05-30T00:10:38.129Z,931.8
2017-05-30T00:10:51.525Z,931.79
2017-05-30T00:11:05.001Z,931.79
2017-05-30T00:11:17.917Z,931.81
2017-05-30T00:11:30.904Z,931.79
2017-05-30T00:11:43.799Z,931.82
2017-05-30T00:11:57.415Z,931.83
2017-05-30T00:12:11.368Z,931.83
2017-05-30T00:12:24.993Z,931.83
2017-05-30T00:12:37.865Z,931.82
2017-05-30T00:12:50.748Z,931.89
2017-05-30T00:13:03.652Z,931.85
2017-05-30T00:13:16.877Z,931.84
2017-05-30T00:13:30.553Z,931.83
2017-05-30T00:13:43.936Z,931.87
2017-05-30T00:13:57.395Z,931.84
2017-05-30T00:14:09.799Z,931.85
2017-05-30T00:14:22.686Z,931.85
2017-05-30T00:14:35.612Z,931.81
2017-05-30T00:14:49.026Z,931.87
2017-05-30T00:15:01.937Z,931.84
2017-05-30T00:15:14.837Z,931.87
2017-05-30T00:15:28.302Z,931.85
2017-05-30T00:15:40.690Z,931.85
2017-05-30T00:15:54.220Z,931.83
2017-05-30T00:16:07.725Z,931.85
2017-05-30T00:16:19.648Z,931.84
2017-05-30T00:16:33.119Z,931.88
2017-05-30T00:16:46.502Z,931.86
2017-05-30T00:16:59.597Z,931.86
2017-05-30T00:17:13.066Z,931.83
2017-05-30T00:17:25.994Z,931.86
2017-05-30T00:17:39.099Z,931.83
2017-05-30T00:17:52.860Z,931.88
2017-05-30T00:18:06.360Z,931.84
2017-05-30T00:18:18.761Z,931.86
2017-05-30T00:18:32.285Z,931.86
2017-05-30T00:18:45.714Z,931.87
2017-05-30T00:18:59.103Z,931.84
2017-05-30T00:19:12.050Z,931.86
2017-05-30T00:19:25.563Z,931.88
2017-05-30T00:19:39.272Z,931.91
2017-05-30T00:19:52.745Z,931.88
2017-05-30T00:20:06.688Z,931.89
2017-05-30T00:20:21.198Z,931.89
2017-05-30T00:20:40.783Z,931.91
2017-05-30T00:20:54.242Z,931.91
2017-05-30T00:21:07.915Z,931.91
2017-05-30T00:21:21.686Z,931.92
2017-05-30T00:21:34.565Z,931.96
2017-05-30T00:21:48.039Z,931.92
2017-05-30T00:22:06.295Z,931.92
2017-05-30T00:22:21.012Z,931.93
2017-05-30T00:22:34.449Z,931.97
2017-05-30T00:22:47.974Z,931.94
2017-05-30T00:23:00.956Z,931.95
2017-05-30T00:23:13.331Z,931.93
2017-05-30T00:23:26.906Z,931.89
2017-05-30T00:23:40.997Z,931.92
2017-05-30T00:23:53.878Z,931.91
2017-05-30T00:24:07.593Z,931.92
2017-05-30T00:24:21.521Z,931.89
2017-05-30T00:24:34.414Z,931.91
2017-05-30T00:24:49.748Z,931.91
2017-05-30T00:25:03.203Z,931.93
2017-05-30T00:25:18.138Z,931.93
2017-05-30T00:25:34.287Z,931.94
2017-05-30T00:25:46.652Z,931.91
2017-05-30T00:26:00.108Z,931.92
2017-05-30T00:26:13.552Z,931.91
2017-05-30T00:26:42.978Z,931.9
2017-05-30T00:26:57.365Z,931.92
2017-05-30T00:27:10.418Z,931.88
2017-05-30T00:27:30.169Z,931.91
2017-05-30T00:27:43.689Z,931.92
2017-05-30T00:28:08.168Z,931.89
2017-05-30T00:28:21.646Z,931.89
2017-05-30T00:28:37.667Z,931.9
2017-05-30T00:28:52.788Z,931.92
2017-05-30T00:29:07.146Z,931.93
2017-05-30T00:29:20.621Z,931.88
2017-05-30T00:29:34.051Z,931.89
2017-05-30T00:29:48.171Z,931.93
2017-05-30T00:30:02.207Z,931.91
2017-05-30T00:30:15.771Z,931.92
2017-05-30T00:30:30.818Z,931.93
2017-05-30T00:30:44.374Z,931.92
2017-05-30T00:30:57.827Z,931.96
2017-05-30T00:31:10.759Z,931.92
2017-05-30T00:31:25.070Z,931.95
2017-05-30T00:31:38.071Z,931.95
2017-05-30T00:31:51.432Z,931.9
2017-05-30T00:32:12.163Z,931.93
2017-05-30T00:32:26.768Z,931.93
2017-05-30T00:32:40.161Z,931.93
2017-05-30T00:32:53.626Z,931.92
2017-05-30T00:33:10.184Z,931.93
2017-05-30T00:33:24.569Z,931.93
2017-05-30T00:33:38.033Z,931.92
2017-05-30T00:33:51.446Z,931.92
2017-05-30T00:34:04.437Z,931.91
2017-05-30T00:34:18.272Z,931.95
2017-05-30T00:34:31.125Z,931.91
2017-05-30T00:34:44.487Z,931.91
2017-05-30T00:34:57.419Z,931.93
2017-05-30T00:35:10.854Z,931.89
2017-05-30T00:35:24.291Z,931.92
2017-05-30T00:35:37.255Z,931.89
2017-05-30T00:35:52.622Z,931.91
2017-05-30T00:36:06.112Z,931.91
2017-05-30T00:36:19.307Z,931.9
2017-05-30T00:36:48.325Z,931.89
2017-05-30T00:37:01.286Z,931.9
2017-05-30T00:37:15.215Z,931.88
2017-05-30T00:37:29.563Z,931.89
2017-05-30T00:37:43.178Z,931.86
2017-05-30T00:37:56.617Z,931.9
2017-05-30T00:38:09.809Z,931.88
2017-05-30T00:38:22.931Z,931.89
2017-05-30T00:38:38.043Z,931.88
2017-05-30T00:38:51.038Z,931.86
2017-05-30T00:39:04.460Z,931.88
2017-05-30T00:39:17.881Z,931.89
2017-05-30T00:39:31.401Z,931.87
2017-05-30T00:39:45.173Z,931.84
2017-05-30T00:39:58.033Z,931.87
2017-05-30T00:40:11.542Z,931.86
2017-05-30T00:40:47.842Z,931.83
2017-05-30T00:41:01.804Z,931.82
2017-05-30T00:41:15.209Z,931.84
2017-05-30T00:41:28.566Z,931.86
2017-05-30T00:41:44.124Z,931.83
2017-05-30T00:41:57.649Z,931.84
2017-05-30T00:42:10.506Z,931.83
2017-05-30T00:42:23.939Z,931.84
2017-05-30T00:42:37.339Z,931.85
2017-05-30T00:42:51.785Z,931.84
2017-05-30T00:43:05.879Z,931.83
2017-05-30T00:43:25.574Z,931.84
2017-05-30T00:43:44.237Z,931.83
2017-05-30T00:43:57.203Z,931.83
2017-05-30T00:44:10.066Z,931.85
2017-05-30T00:44:23.833Z,931.82
2017-05-30T00:44:37.316Z,931.83
2017-05-30T00:44:50.738Z,931.83
2017-05-30T00:45:04.195Z,931.84
2017-05-30T00:45:17.093Z,931.85
2017-05-30T00:45:31.971Z,931.84
2017-05-30T00:45:45.481Z,931.87
2017-05-30T00:45:58.999Z,931.83
2017-05-30T00:46:11.966Z,931.83
2017-05-30T00:46:25.603Z,931.83
2017-05-30T00:46:39.012Z,931.83
2017-05-30T00:46:51.935Z,931.85
2017-05-30T00:47:05.350Z,931.81
2017-05-30T00:47:18.267Z,931.83
2017-05-30T00:47:31.109Z,931.81
2017-05-30T00:47:43.963Z,931.81
2017-05-30T00:47:57.403Z,931.83
2017-05-30T00:48:10.310Z,931.8
2017-05-30T00:48:23.762Z,931.8
2017-05-30T00:48:37.226Z,931.77
2017-05-30T00:48:50.709Z,931.8
2017-05-30T00:49:05.385Z,931.77
2017-05-30T00:49:18.857Z,931.77
2017-05-30T00:49:31.791Z,931.76
2017-05-30T00:49:45.257Z,931.74
2017-05-30T00:49:58.232Z,931.74
2017-05-30T00:50:11.701Z,931.73
2017-05-30T00:50:25.052Z,931.7
2017-05-30T00:50:37.394Z,931.71
2017-05-30T00:50:50.329Z,931.72
2017-05-30T00:51:03.175Z,931.71
2017-05-30T00:51:17.394Z,931.74
2017-05-30T00:51:30.898Z,931.71
2017-05-30T00:51:44.332Z,931.72
2017-05-30T00:51:57.778Z,931.76
2017-05-30T00:52:10.520Z,931.73
2017-05-30T00:52:22.909Z,931.7
2017-05-30T00:52:36.430Z,931.78
2017-05-30T00:52:49.813Z,931.73
2017-05-30T00:53:03.285Z,931.73
2017-05-30T00:53:18.072Z,931.74
2017-05-30T00:53:31.640Z,931.76
2017-05-30T00:53:45.172Z,931.71
2017-05-30T00:53:58.157Z,931.76
2017-05-30T00:54:11.772Z,931.77
2017-05-30T00:54:25.151Z,931.76
2017-05-30T00:54:38.093Z,931.73
2017-05-30T00:54:51.497Z,931.78
2017-05-30T00:55:04.587Z,931.76
2017-05-30T00:55:17.067Z,931.74
2017-05-30T00:55:43.001Z,931.76
2017-05-30T00:56:07.922Z,931.74
2017-05-30T00:56:21.915Z,931.75
2017-05-30T00:56:54.469Z,931.73
2017-05-30T00:57:13.817Z,931.75
2017-05-30T00:57:26.957Z,931.74
2017-05-30T00:57:42.699Z,931.74
2017-05-30T00:58:21.329Z,931.72
2017-05-30T00:58:39.463Z,931.73
2017-05-30T00:58:52.805Z,931.72
2017-05-30T00:59:06.198Z,931.7
2017-05-30T00:59:19.964Z,931.7
2017-05-30T00:59:34.840Z,931.71
2017-05-30T00:59:47.772Z,931.74
2017-05-30T01:00:01.314Z,931.69
2017-05-30T01:00:17.575Z,931.71
2017-05-30T01:00:39.749Z,931.7
2017-05-30T01:01:16.836Z,931.71
2017-05-30T01:01:30.334Z,931.71
2017-05-30T01:01:44.552Z,931.7
2017-05-30T01:01:58.015Z,931.74
2017-05-30T01:02:12.594Z,931.73
2017-05-30T01:02:25.269Z,931.72
2017-05-30T01:02:38.110Z,931.72
2017-05-30T01:02:57.837Z,931.74
2017-05-30T01:03:21.639Z,931.73
2017-05-30T01:03:39.076Z,931.75
2017-05-30T01:03:52.519Z,931.74
2017-05-30T01:04:08.634Z,931.74
2017-05-30T01:04:25.509Z,931.77
2017-05-30T01:04:51.650Z,931.78
2017-05-30T01:05:38.238Z,931.77
2017-05-30T01:05:54.732Z,931.76
2017-05-30T01:06:08.114Z,931.8
2017-05-30T01:06:26.160Z,931.8
2017-05-30T01:06:39.588Z,931.83
2017-05-30T01:06:56.251Z,931.82
2017-05-30T01:07:14.272Z,931.82
2017-05-30T01:07:28.003Z,931.79
2017-05-30T01:07:40.913Z,931.81
2017-05-30T01:07:58.271Z,931.81
2017-05-30T01:08:10.745Z,931.82
2017-05-30T01:08:30.723Z,931.84
2017-05-30T01:08:54.284Z,931.85
2017-05-30T01:09:09.983Z,931.82
2017-05-30T01:09:42.142Z,931.83
2017-05-30T01:09:55.679Z,931.85
2017-05-30T01:10:15.154Z,931.84
2017-05-30T01:10:29.276Z,931.83
2017-05-30T01:10:42.748Z,931.83
2017-05-30T01:10:57.680Z,931.82
2017-05-30T01:11:11.917Z,931.84
2017-05-30T01:11:25.809Z,931.86
2017-05-30T01:11:40.993Z,931.81
2017-05-30T01:11:56.659Z,931.87
2017-05-30T01:12:28.225Z,931.86
2017-05-30T01:12:41.640Z,931.84
2017-05-30T01:12:55.197Z,931.82
2017-05-30T01:13:08.161Z,931.81
2017-05-30T01:13:21.526Z,931.86
2017-05-30T01:13:34.937Z,931.84
2017-05-30T01:13:48.577Z,931.86
2017-05-30T01:14:02.081Z,931.86
2017-05-30T01:14:15.018Z,931.84
2017-05-30T01:14:28.395Z,931.82
2017-05-30T01:14:41.258Z,931.85
2017-05-30T01:14:54.718Z,931.86
2017-05-30T01:15:08.159Z,931.83
2017-05-30T01:15:21.636Z,931.85
2017-05-30T01:15:35.157Z,931.86
2017-05-30T01:15:48.115Z,931.84
2017-05-30T01:16:00.975Z,931.86
2017-05-30T01:16:13.831Z,931.81
2017-05-30T01:16:27.287Z,931.86
2017-05-30T01:16:40.720Z,931.84
2017-05-30T01:16:54.115Z,931.83
2017-05-30T01:17:07.594Z,931.84
2017-05-30T01:17:20.499Z,931.85
2017-05-30T01:17:33.959Z,931.84
2017-05-30T01:17:47.430Z,931.86
2017-05-30T01:18:01.571Z,931.82
2017-05-30T01:18:14.465Z,931.83
2017-05-30T01:18:27.585Z,931.83
2017-05-30T01:18:40.750Z,931.84
2017-05-30T01:18:54.139Z,931.82
2017-05-30T01:19:07.019Z,931.82
2017-05-30T01:19:22.762Z,931.86
2017-05-30T01:19:36.289Z,931.8
2017-05-30T01:19:49.221Z,931.84
2017-05-30T01:20:02.731Z,931.82
2017-05-30T01:20:14.585Z,931.83
2017-05-30T01:20:27.532Z,931.84
2017-05-30T01:20:40.944Z,931.8
2017-05-30T01:20:54.525Z,931.81
2017-05-30T01:21:06.911Z,931.86
2017-05-30T01:21:19.838Z,931.81
2017-05-30T01:21:31.985Z,931.82
2017-05-30T01:21:44.953Z,931.83
2017-05-30T01:21:57.850Z,931.83
2017-05-30T01:22:10.809Z,931.83
2017-05-30T01:22:23.750Z,931.83
2017-05-30T01:22:38.348Z,931.83
2017-05-30T01:22:51.900Z,931.84
2017-05-30T01:23:05.375Z,931.83
2017-05-30T01:23:17.798Z,931.82
2017-05-30T01:23:31.291Z,931.83
2017-05-30T01:23:44.730Z,931.81
2017-05-30T01:23:58.261Z,931.82
2017-05-30T01:24:11.225Z,931.84
2017-05-30T01:24:24.700Z,931.84
2017-05-30T01:24:37.067Z,931.84
2017-05-30T01:24:50.466Z,931.84
2017-05-30T01:25:03.898Z,931.84
2017-05-30T01:25:17.392Z,931.82
2017-05-30T01:25:30.939Z,931.83
2017-05-30T01:25:43.879Z,931.83
2017-05-30T01:25:57.242Z,931.83
2017-05-30T01:26:10.695Z,931.81
2017-05-30T01:26:23.613Z,931.83
2017-05-30T01:26:36.529Z,931.84
2017-05-30T01:26:49.530Z,931.81
2017-05-30T01:27:02.951Z,931.83
2017-05-30T01:27:16.377Z,931.84
2017-05-30T01:27:29.734Z,931.82
2017-05-30T01:27:43.181Z,931.82
2017-05-30T01:27:56.624Z,931.84
2017-05-30T01:28:09.461Z,931.82
2017-05-30T01:28:22.824Z,931.84
2017-05-30T01:28:36.308Z,931.84
2017-05-30T01:28:49.864Z,931.81
2017-05-30T01:29:03.621Z,931.82
2017-05-30T01:29:17.180Z,931.82
2017-05-30T01:29:30.085Z,931.83
2017-05-30T01:29:43.820Z,931.79
2017-05-30T01:29:57.185Z,931.79
2017-05-30T01:30:10.740Z,931.82
2017-05-30T01:30:25.389Z,931.81
2017-05-30T01:30:39.525Z,931.82
2017-05-30T01:30:58.067Z,931.81
2017-05-30T01:31:10.968Z,931.79
2017-05-30T01:31:23.882Z,931.83
2017-05-30T01:31:37.635Z,931.77
2017-05-30T01:31:50.016Z,931.76
2017-05-30T01:32:03.481Z,931.82
2017-05-30T01:32:17.682Z,931.79
2017-05-30T01:32:32.355Z,931.8
2017-05-30T01:32:46.298Z,931.79
2017-05-30T01:32:59.885Z,931.79
2017-05-30T01:33:13.403Z,931.8
2017-05-30T01:33:27.113Z,931.79
2017-05-30T01:33:40.010Z,931.81
2017-05-30T01:33:52.540Z,931.8
2017-05-30T01:34:05.998Z,931.81
2017-05-30T01:34:19.502Z,931.79
2017-05-30T01:34:33.683Z,931.79
2017-05-30T01:34:46.617Z,931.8
2017-05-30T01:35:00.019Z,931.76
2017-05-30T01:35:13.674Z,931.8
2017-05-30T01:35:26.653Z,931.78
2017-05-30T01:35:40.066Z,931.78
2017-05-30T01:35:54.172Z,931.78
2017-05-30T01:36:09.498Z,931.79
2017-05-30T01:36:22.467Z,931.77
2017-05-30T01:36:35.913Z,931.79
2017-05-30T01:36:49.641Z,931.78
2017-05-30T01:37:02.166Z,931.76
2017-05-30T01:37:20.476Z,931.8
2017-05-30T01:37:33.914Z,931.77
2017-05-30T01:37:46.875Z,931.77
2017-05-30T01:38:01.143Z,931.74
2017-05-30T01:38:14.540Z,931.74
2017-05-30T01:38:38.799Z,931.78
2017-05-30T01:39:03.239Z,931.78
2017-05-30T01:39:16.145Z,931.76
2017-05-30T01:39:29.868Z,931.76
2017-05-30T01:39:44.081Z,931.74
2017-05-30T01:39:56.991Z,931.77
2017-05-30T01:40:09.994Z,931.77
2017-05-30T01:40:22.962Z,931.77
2017-05-30T01:40:36.443Z,931.76
2017-05-30T01:40:49.878Z,931.77
2017-05-30T01:41:03.355Z,931.75
2017-05-30T01:41:16.187Z,931.72
2017-05-30T01:41:29.092Z,931.76
2017-05-30T01:41:42.614Z,931.73
2017-05-30T01:41:56.098Z,931.72
2017-05-30T01:42:09.584Z,931.76
2017-05-30T01:42:23.064Z,931.75
2017-05-30T01:42:36.509Z,931.76
2017-05-30T01:42:49.949Z,931.76
2017-05-30T01:43:03.425Z,931.74
2017-05-30T01:43:16.879Z,931.76
2017-05-30T01:43:30.314Z,931.77
2017-05-30T01:43:43.315Z,931.76
2017-05-30T01:43:56.735Z,931.74
2017-05-30T01:44:10.386Z,931.72
2017-05-30T01:44:23.816Z,931.75
2017-05-30T01:44:37.360Z,931.72
2017-05-30T01:44:50.808Z,931.74
2017-05-30T01:45:04.196Z,931.77
2017-05-30T01:45:16.576Z,931.77
2017-05-30T01:45:29.469Z,931.78
2017-05-30T01:45:44.098Z,931.76
2017-05-30T01:45:56.480Z,931.78
2017-05-30T01:46:10.038Z,931.78
2017-05-30T01:46:22.983Z,931.77
2017-05-30T01:46:35.871Z,931.79
2017-05-30T01:46:49.306Z,931.81
2017-05-30T01:47:01.208Z,931.78
2017-05-30T01:47:14.634Z,931.81
2017-05-30T01:47:27.530Z,931.8
2017-05-30T01:47:40.964Z,931.81
2017-05-30T01:47:53.812Z,931.82
2017-05-30T01:48:07.180Z,931.84
2017-05-30T01:48:19.585Z,931.82
2017-05-30T01:48:32.065Z,931.84
2017-05-30T01:48:45.113Z,931.82
2017-05-30T01:48:57.435Z,931.84
2017-05-30T01:49:10.865Z,931.84
2017-05-30T01:49:24.263Z,931.86
2017-05-30T01:49:37.127Z,931.89
2017-05-30T01:49:50.035Z,931.88
2017-05-30T01:50:03.450Z,931.83
2017-05-30T01:50:16.360Z,931.85
2017-05-30T01:50:28.738Z,931.84
2017-05-30T01:50:42.115Z,931.84
2017-05-30T01:50:55.124Z,931.87
2017-05-30T01:51:08.090Z,931.87
2017-05-30T01:51:21.579Z,931.88
2017-05-30T01:51:35.048Z,931.91
2017-05-30T01:51:51.501Z,931.88
2017-05-30T01:52:04.832Z,931.88
2017-05-30T01:52:20.762Z,931.88
2017-05-30T01:52:35.121Z,931.89
2017-05-30T01:52:47.542Z,931.87
2017-05-30T01:53:00.435Z,931.87
2017-05-30T01:53:13.453Z,931.9
2017-05-30T01:53:25.936Z,931.87
2017-05-30T01:53:39.467Z,931.89
2017-05-30T01:53:52.395Z,931.88
2017-05-30T01:54:05.844Z,931.88
2017-05-30T01:54:18.829Z,931.9
2017-05-30T01:54:32.729Z,931.88
2017-05-30T01:54:46.172Z,931.88
2017-05-30T01:54:59.604Z,931.89
2017-05-30T01:55:13.119Z,931.87
2017-05-30T01:55:26.037Z,931.87
2017-05-30T01:55:39.433Z,931.89
2017-05-30T01:55:52.355Z,931.88
2017-05-30T01:56:05.876Z,931.86
2017-05-30T01:56:22.991Z,931.91
2017-05-30T01:56:36.416Z,931.91
2017-05-30T01:56:49.855Z,931.88
2017-05-30T01:57:03.192Z,931.86
2017-05-30T01:57:21.137Z,931.92
2017-05-30T01:57:34.670Z,931.88
2017-05-30T01:57:48.113Z,931.86
2017-05-30T01:58:01.676Z,931.86
2017-05-30T01:58:14.624Z,931.84
2017-05-30T01:58:27.989Z,931.87
2017-05-30T01:58:40.935Z,931.93
2017-05-30T01:59:06.602Z,931.85
2017-05-30T01:59:19.737Z,931.89
2017-05-30T02:03:38.000Z,931.82
2017-05-30T02:03:51.467Z,931.87
2017-05-30T02:04:27.521Z,931.83
2017-05-30T02:04:41.031Z,931.84
2017-05-30T02:04:54.599Z,931.84
2017-05-30T02:05:12.610Z,931.82
2017-05-30T02:05:26.361Z,931.84
2017-05-30T02:05:40.397Z,931.85
2017-05-30T02:06:00.753Z,931.85
2017-05-30T02:06:13.653Z,931.85
2017-05-30T02:06:27.122Z,931.86
2017-05-30T02:06:42.196Z,931.83
2017-05-30T02:06:55.721Z,931.83
2017-05-30T02:07:08.624Z,931.84
2017-05-30T02:07:21.546Z,931.81
2017-05-30T02:07:34.925Z,931.83
2017-05-30T02:07:48.309Z,931.84
2017-05-30T02:08:24.512Z,931.81
2017-05-30T02:08:38.009Z,931.82
2017-05-30T02:08:52.548Z,931.8
2017-05-30T02:09:07.112Z,931.81
2017-05-30T02:09:27.917Z,931.79
2017-05-30T02:09:41.390Z,931.81
2017-05-30T02:09:54.853Z,931.79
2017-05-30T02:10:12.772Z,931.75
2017-05-30T02:10:26.205Z,931.81
2017-05-30T02:10:41.512Z,931.78
2017-05-30T02:10:54.966Z,931.77
2017-05-30T02:11:09.063Z,931.74
2017-05-30T02:11:22.994Z,931.75
2017-05-30T02:11:37.135Z,931.72
2017-05-30T02:11:50.523Z,931.71
2017-05-30T02:12:09.105Z,931.68
2017-05-30T02:12:35.656Z,931.71
2017-05-30T02:12:56.117Z,931.7
2017-05-30T02:13:08.596Z,931.7
2017-05-30T02:13:53.208Z,931.68
2017-05-30T02:14:06.162Z,931.69
2017-05-30T02:14:19.127Z,931.72
2017-05-30T02:14:32.231Z,931.72
2017-05-30T02:14:45.574Z,931.68
2017-05-30T02:14:59.030Z,931.65
2017-05-30T02:15:11.459Z,931.63
2017-05-30T02:15:25.123Z,931.66
2017-05-30T02:15:37.720Z,931.66
2017-05-30T02:15:51.153Z,931.66
2017-05-30T02:16:04.070Z,931.68
2017-05-30T02:16:16.965Z,931.64
2017-05-30T02:16:30.358Z,931.7
2017-05-30T02:16:43.868Z,931.65
2017-05-30T02:16:57.367Z,931.69
2017-05-30T02:17:23.045Z,931.65
2017-05-30T02:17:36.015Z,931.67
2017-05-30T02:17:49.433Z,931.67
2017-05-30T02:18:02.859Z,931.71
2017-05-30T02:18:17.287Z,931.68
2017-05-30T02:18:30.755Z,931.67
2017-05-30T02:18:44.235Z,931.69
2017-05-30T02:18:57.689Z,931.66
2017-05-30T02:19:10.644Z,931.69
2017-05-30T02:19:24.076Z,931.7
2017-05-30T02:19:37.423Z,931.69
2017-05-30T02:19:50.867Z,931.68
2017-05-30T02:20:04.307Z,931.71
2017-05-30T02:20:23.440Z,931.68
2017-05-30T02:20:36.896Z,931.7
2017-05-30T02:20:51.481Z,931.73
2017-05-30T02:21:07.979Z,931.71
2017-05-30T02:21:23.609Z,931.7
2017-05-30T02:21:49.752Z,931.71
2017-05-30T02:22:16.569Z,931.73
2017-05-30T02:22:31.941Z,931.72
2017-05-30T02:22:46.530Z,931.74
2017-05-30T02:23:29.802Z,931.71
2017-05-30T02:23:43.173Z,931.74
2017-05-30T02:24:00.856Z,931.74
2017-05-30T02:24:16.080Z,931.74
2017-05-30T02:24:58.020Z,931.75
2017-05-30T02:25:32.318Z,931.75
2017-05-30T02:25:49.537Z,931.72
2017-05-30T02:26:02.990Z,931.71
2017-05-30T02:26:17.837Z,931.72
2017-05-30T02:26:31.214Z,931.71
2017-05-30T02:26:44.605Z,931.72
2017-05-30T02:27:02.488Z,931.68
2017-05-30T02:27:15.958Z,931.67
2017-05-30T02:27:29.075Z,931.65
2017-05-30T02:27:45.477Z,931.68
2017-05-30T02:27:58.894Z,931.63
2017-05-30T02:28:13.564Z,931.61
2017-05-30T02:28:26.489Z,931.63
2017-05-30T02:28:39.979Z,931.62
2017-05-30T02:28:58.603Z,931.63
2017-05-30T02:29:23.782Z,931.62
2017-05-30T02:29:37.193Z,931.61
2017-05-30T02:29:50.678Z,931.64
2017-05-30T02:30:04.326Z,931.61
2017-05-30T02:30:17.756Z,931.58
2017-05-30T02:30:30.635Z,931.62
2017-05-30T02:30:44.056Z,931.6
2017-05-30T02:30:56.472Z,931.61
2017-05-30T02:31:09.897Z,931.62
2017-05-30T02:31:22.753Z,931.59
2017-05-30T02:31:36.180Z,931.62
2017-05-30T02:31:51.723Z,931.62
2017-05-30T02:32:05.132Z,931.61
2017-05-30T02:32:18.498Z,931.62
2017-05-30T02:32:31.879Z,931.62
2017-05-30T02:32:45.906Z,931.63
2017-05-30T02:32:58.773Z,931.63
2017-05-30T02:33:11.117Z,931.6
2017-05-30T02:33:29.873Z,931.61
2017-05-30T02:33:43.297Z,931.6
2017-05-30T02:33:56.749Z,931.61
2017-05-30T02:34:10.220Z,931.63
2017-05-30T02:34:23.685Z,931.63
2017-05-30T02:34:36.494Z,931.61
2017-05-30T02:34:51.405Z,931.64
2017-05-30T02:35:04.739Z,931.63
2017-05-30T02:35:17.824Z,931.62
2017-05-30T02:35:34.264Z,931.65
2017-05-30T02:35:47.195Z,931.66
2017-05-30T02:36:05.264Z,931.65
2017-05-30T02:36:18.278Z,931.65
2017-05-30T02:36:31.219Z,931.68
2017-05-30T02:36:44.654Z,931.68
2017-05-30T02:37:08.057Z,931.71
2017-05-30T02:37:20.390Z,931.74
2017-05-30T02:37:36.654Z,931.76
2017-05-30T02:37:53.162Z,931.75
2017-05-30T02:38:14.284Z,931.75
2017-05-30T02:38:27.735Z,931.75
2017-05-30T02:38:42.097Z,931.74
2017-05-30T02:38:55.520Z,931.73
2017-05-30T02:39:08.413Z,931.72
2017-05-30T02:39:21.936Z,931.73
2017-05-30T02:39:35.410Z,931.68
2017-05-30T02:39:49.557Z,931.76
2017-05-30T02:40:06.603Z,931.72
2017-05-30T02:40:20.578Z,931.74
2017-05-30T02:40:34.007Z,931.71
2017-05-30T02:40:47.479Z,931.75
2017-05-30T02:41:00.850Z,931.72
2017-05-30T02:41:14.334Z,931.7
2017-05-30T02:41:27.808Z,931.7
2017-05-30T02:41:40.780Z,931.67
2017-05-30T02:41:54.177Z,931.67
2017-05-30T02:42:07.633Z,931.74
2017-05-30T02:42:20.512Z,931.69
2017-05-30T02:42:33.915Z,931.74
2017-05-30T02:42:47.428Z,931.68
2017-05-30T02:43:00.905Z,931.72
2017-05-30T02:43:13.266Z,931.69
2017-05-30T02:43:26.685Z,931.72
2017-05-30T02:43:40.063Z,931.69
2017-05-30T02:43:53.720Z,931.68
2017-05-30T02:44:07.162Z,931.7
2017-05-30T02:44:20.147Z,931.69
2017-05-30T02:44:33.077Z,931.7
2017-05-30T02:44:46.518Z,931.73
2017-05-30T02:44:59.403Z,931.68
2017-05-30T02:45:13.257Z,931.69
2017-05-30T02:45:25.661Z,931.67
2017-05-30T02:45:38.616Z,931.69
2017-05-30T02:45:51.451Z,931.7
2017-05-30T02:46:04.283Z,931.68
2017-05-30T02:46:17.679Z,931.66
2017-05-30T02:46:31.115Z,931.69
2017-05-30T02:46:44.010Z,931.68
2017-05-30T02:46:57.454Z,931.71
2017-05-30T02:47:10.357Z,931.67
2017-05-30T02:47:22.657Z,931.7
2017-05-30T02:47:35.045Z,931.68
2017-05-30T02:47:48.614Z,931.71
2017-05-30T02:48:01.460Z,931.69
2017-05-30T02:48:14.940Z,931.71
2017-05-30T02:48:33.829Z,931.67
2017-05-30T02:48:47.305Z,931.68
2017-05-30T02:49:00.259Z,931.68
2017-05-30T02:49:13.827Z,931.64
2017-05-30T02:49:29.476Z,931.63
2017-05-30T02:49:42.789Z,931.65
2017-05-30T02:49:55.142Z,931.62
2017-05-30T02:50:08.589Z,931.62
2017-05-30T02:50:21.533Z,931.64
2017-05-30T02:50:35.824Z,931.61
2017-05-30T02:50:49.531Z,931.58
2017-05-30T02:51:03.076Z,931.61
2017-05-30T02:51:15.980Z,931.58
2017-05-30T02:51:28.968Z,931.58
2017-05-30T02:51:47.685Z,931.61
2017-05-30T02:52:01.386Z,931.6
2017-05-30T02:52:14.299Z,931.61
2017-05-30T02:52:26.696Z,931.58
2017-05-30T02:52:40.815Z,931.59
2017-05-30T02:52:54.220Z,931.62
2017-05-30T02:53:06.570Z,931.6
2017-05-30T02:53:19.922Z,931.57
2017-05-30T02:53:33.443Z,931.57
2017-05-30T02:53:46.881Z,931.6
2017-05-30T02:54:00.200Z,931.57
2017-05-30T02:54:13.124Z,931.59
2017-05-30T02:54:26.556Z,931.58
2017-05-30T02:54:39.981Z,931.6
2017-05-30T02:54:53.413Z,931.57
2017-05-30T02:55:08.133Z,931.61
2017-05-30T02:55:22.792Z,931.57
2017-05-30T02:55:39.193Z,931.57
2017-05-30T02:55:52.764Z,931.55
2017-05-30T02:56:05.742Z,931.56
2017-05-30T02:56:18.642Z,931.54
2017-05-30T02:56:31.543Z,931.57
2017-05-30T02:56:44.917Z,931.55
2017-05-30T02:56:58.340Z,931.55
2017-05-30T02:57:11.281Z,931.53
2017-05-30T02:57:24.696Z,931.54
2017-05-30T02:57:38.089Z,931.56
2017-05-30T02:57:51.548Z,931.51
2017-05-30T02:58:05.174Z,931.5
2017-05-30T02:58:18.114Z,931.53
2017-05-30T02:58:31.623Z,931.52
2017-05-30T02:58:45.294Z,931.55
2017-05-30T02:58:58.337Z,931.53
2017-05-30T02:59:10.686Z,931.51
2017-05-30T02:59:24.118Z,931.49
2017-05-30T02:59:37.072Z,931.52
2017-05-30T02:59:50.479Z,931.52
2017-05-30T03:00:03.904Z,931.52
2017-05-30T03:00:17.039Z,931.54
2017-05-30T03:00:30.583Z,931.51
2017-05-30T03:00:42.922Z,931.53
2017-05-30T03:00:56.474Z,931.54
2017-05-30T03:01:10.668Z,931.51
2017-05-30T03:01:24.301Z,931.53
2017-05-30T03:01:37.841Z,931.47
2017-05-30T03:01:51.258Z,931.5
2017-05-30T03:02:04.685Z,931.51
2017-05-30T03:02:17.596Z,931.5
2017-05-30T03:02:31.012Z,931.53
2017-05-30T03:02:44.392Z,931.48
2017-05-30T03:02:57.215Z,931.53
2017-05-30T03:03:10.582Z,931.49
2017-05-30T03:03:23.455Z,931.53
2017-05-30T03:03:36.915Z,931.54
2017-05-30T03:03:50.333Z,931.5
2017-05-30T03:04:03.837Z,931.5
2017-05-30T03:04:15.674Z,931.51
2017-05-30T03:04:28.744Z,931.51